createdAt,value
2022-10-28T00:01:06.271Z,95.10
2022-10-28T00:03:34.918Z,94.80
2022-10-28T00:06:03.848Z,94.70
2022-10-28T00:08:31.743Z,94.70
2022-10-28T00:11:07.126Z,94.70
2022-10-28T00:13:36.710Z,94.70
2022-10-28T00:16:06.540Z,94.60
2022-10-28T00:18:34.409Z,94.70
2022-10-28T00:21:03.201Z,94.60
2022-10-28T00:23:31.500Z,94.60
2022-10-28T00:26:05.924Z,94.70
2022-10-28T00:28:33.884Z,94.60
2022-10-28T00:31:07.495Z,94.70
2022-10-28T00:33:35.624Z,94.70
2022-10-28T00:36:12.510Z,94.70
2022-10-28T00:38:40.811Z,94.70
2022-10-28T00:41:09.315Z,94.60
2022-10-28T00:43:39.937Z,94.60
2022-10-28T00:46:18.892Z,94.60
2022-10-28T00:48:51.830Z,94.60
2022-10-28T00:51:22.435Z,94.60
2022-10-28T00:53:52.739Z,94.70
2022-10-28T00:56:22.119Z,94.70
2022-10-28T00:58:51.133Z,94.70
2022-10-28T01:01:20.469Z,94.80
2022-10-28T01:03:48.990Z,94.60
2022-10-28T01:06:17.359Z,94.80
2022-10-28T01:08:45.241Z,94.70
2022-10-28T01:11:37.703Z,94.70
2022-10-28T01:14:27.479Z,94.80
2022-10-28T01:17:09.859Z,94.80
2022-10-28T01:20:08.998Z,94.80
2022-10-28T01:22:42.383Z,94.90
2022-10-28T01:25:36.665Z,94.80
2022-10-28T01:28:17.152Z,94.80
2022-10-28T01:31:19.307Z,94.50
2022-10-28T01:33:53.032Z,94.70
2022-10-28T01:36:30.396Z,94.40
2022-10-28T01:39:07.475Z,94.80
2022-10-28T01:41:39.624Z,94.70
2022-10-28T01:44:10.827Z,94.60
2022-10-28T01:46:46.561Z,94.60
2022-10-28T01:49:20.577Z,94.60
2022-10-28T01:51:52.015Z,94.60
2022-10-28T01:54:25.270Z,94.50
2022-10-28T01:56:55.711Z,94.50
2022-10-28T01:59:25.931Z,94.50
2022-10-28T02:01:55.370Z,94.50
2022-10-28T02:04:23.270Z,94.50
2022-10-28T02:06:54.811Z,94.50
2022-10-28T02:09:38.184Z,94.80
2022-10-28T02:12:22.908Z,94.40
2022-10-28T02:15:32.354Z,94.40
2022-10-28T02:18:26.358Z,94.60
2022-10-28T02:20:59.367Z,94.60
2022-10-28T02:23:38.541Z,94.50
2022-10-28T02:26:13.523Z,94.30
2022-10-28T02:28:49.444Z,94.60
2022-10-28T02:31:25.589Z,94.90
2022-10-28T02:34:00.503Z,94.60
2022-10-28T02:36:31.954Z,94.50
2022-10-28T02:39:01.628Z,94.50
2022-10-28T02:41:35.460Z,94.50
2022-10-28T02:44:08.364Z,94.30
2022-10-28T02:46:40.042Z,94.50
2022-10-28T02:49:11.929Z,94.40
2022-10-28T02:51:43.067Z,94.40
2022-10-28T02:54:14.184Z,94.40
2022-10-28T02:56:47.710Z,94.30
2022-10-28T02:59:15.681Z,94.40
2022-10-28T03:01:43.726Z,94.40
2022-10-28T03:04:13.039Z,94.50
2022-10-28T03:06:40.901Z,94.50
2022-10-28T03:09:08.826Z,94.50
2022-10-28T03:11:36.809Z,94.50
2022-10-28T03:14:05.067Z,94.40
2022-10-28T03:16:33.333Z,94.60
2022-10-28T03:19:01.240Z,94.60
2022-10-28T03:21:30.487Z,94.60
2022-10-28T03:23:58.371Z,94.60
2022-10-28T03:26:26.242Z,94.60
2022-10-28T03:28:54.142Z,94.60
2022-10-28T03:31:22.029Z,94.60
2022-10-28T03:33:49.895Z,94.70
2022-10-28T03:36:17.751Z,94.70
2022-10-28T03:38:46.966Z,94.60
2022-10-28T03:41:14.931Z,94.60
2022-10-28T03:43:42.854Z,94.50
2022-10-28T03:46:10.697Z,94.50
2022-10-28T03:48:38.538Z,94.50
2022-10-28T03:51:06.774Z,94.50
2022-10-28T03:53:34.655Z,94.50
2022-10-28T03:56:04.590Z,94.50
2022-10-28T03:58:35.056Z,94.50
2022-10-28T04:01:04.618Z,94.50
2022-10-28T04:03:32.574Z,94.40
2022-10-28T04:06:00.444Z,94.40
2022-10-28T04:08:28.460Z,94.30
2022-10-28T04:10:56.357Z,94.30
2022-10-28T04:13:25.718Z,94.30
2022-10-28T04:15:53.596Z,94.20
2022-10-28T04:18:21.454Z,94.40
2022-10-28T04:20:49.320Z,94.40
2022-10-28T04:23:19.215Z,94.40
2022-10-28T04:25:47.099Z,94.50
2022-10-28T04:28:14.929Z,94.50
2022-10-28T04:30:44.252Z,94.60
2022-10-28T04:33:13.644Z,94.60
2022-10-28T04:35:43.054Z,95.00
2022-10-28T04:38:11.493Z,94.80
2022-10-28T04:40:39.470Z,94.80
2022-10-28T04:43:09.751Z,94.70
2022-10-28T04:45:38.658Z,94.40
2022-10-28T04:48:09.449Z,94.80
2022-10-28T04:50:37.384Z,94.80
2022-10-28T04:53:05.258Z,94.70
2022-10-28T04:55:33.130Z,94.20
2022-10-28T04:58:01.905Z,94.80
2022-10-28T05:00:30.853Z,94.80
2022-10-28T05:03:01.827Z,94.80
2022-10-28T05:05:31.187Z,94.80
2022-10-28T05:07:59.061Z,94.80
2022-10-28T05:10:26.931Z,94.80
2022-10-28T05:12:54.817Z,94.70
2022-10-28T05:15:22.708Z,94.70
2022-10-28T05:17:50.794Z,94.60
2022-10-28T05:20:19.614Z,94.50
2022-10-28T05:22:50.173Z,94.50
2022-10-28T05:25:18.187Z,94.40
2022-10-28T05:27:46.277Z,94.60
2022-10-28T05:30:14.934Z,94.50
2022-10-28T05:32:42.818Z,94.60
2022-10-28T05:35:11.407Z,94.50
2022-10-28T05:37:39.286Z,94.60
2022-10-28T05:40:10.071Z,94.60
2022-10-28T05:42:42.740Z,94.50
2022-10-28T05:45:11.355Z,94.50
2022-10-28T05:47:43.518Z,94.60
2022-10-28T05:50:11.724Z,94.60
2022-10-28T05:52:39.628Z,94.60
2022-10-28T05:55:09.507Z,94.60
2022-10-28T05:57:37.464Z,94.90
2022-10-28T06:00:06.824Z,94.60
2022-10-28T06:02:34.723Z,94.60
2022-10-28T06:05:02.608Z,94.50
2022-10-28T06:07:30.571Z,94.50
2022-10-28T06:09:58.458Z,94.50
2022-10-28T06:12:26.557Z,94.60
2022-10-28T06:14:54.427Z,94.50
2022-10-28T06:17:22.486Z,94.60
2022-10-28T06:19:50.553Z,94.60
2022-10-28T06:22:18.663Z,94.70
2022-10-28T06:24:46.527Z,94.70
2022-10-28T06:27:14.392Z,94.70
2022-10-28T06:29:43.687Z,94.70
2022-10-28T06:32:11.595Z,94.60
2022-10-28T06:34:39.431Z,94.80
2022-10-28T06:37:08.950Z,94.40
2022-10-28T06:39:38.253Z,95.10
2022-10-28T06:42:06.275Z,94.90
2022-10-28T06:44:34.137Z,94.70
2022-10-28T06:47:04.909Z,95.00
2022-10-28T06:49:32.793Z,95.00
2022-10-28T06:52:00.654Z,94.90
2022-10-28T06:54:28.521Z,95.00
2022-10-28T06:56:56.400Z,95.10
2022-10-28T06:59:24.266Z,94.80
2022-10-28T07:01:52.350Z,95.00
2022-10-28T07:04:21.637Z,95.00
2022-10-28T07:06:51.989Z,95.00
2022-10-28T07:09:20.099Z,94.90
2022-10-28T07:11:54.839Z,95.40
2022-10-28T07:14:23.413Z,95.40
2022-10-28T07:16:51.329Z,95.40
2022-10-28T07:19:22.635Z,95.30
2022-10-28T07:21:52.005Z,95.20
2022-10-28T07:24:19.890Z,95.50
2022-10-28T07:26:51.090Z,95.20
2022-10-28T07:29:20.932Z,95.20
2022-10-28T07:31:48.793Z,95.20
2022-10-28T07:34:16.781Z,95.20
2022-10-28T07:36:44.635Z,95.10
2022-10-28T07:39:13.969Z,95.00
2022-10-28T07:41:41.864Z,95.10
2022-10-28T07:44:09.712Z,95.40
2022-10-28T07:46:37.595Z,95.20
2022-10-28T07:49:05.787Z,95.10
2022-10-28T07:51:33.695Z,95.10
2022-10-28T07:54:01.577Z,95.10
2022-10-28T07:56:30.788Z,95.10
2022-10-28T07:58:58.672Z,95.20
2022-10-28T08:01:26.604Z,95.20
2022-10-28T08:03:54.606Z,95.30
2022-10-28T08:06:22.788Z,95.40
2022-10-28T08:08:55.108Z,95.40
2022-10-28T08:11:23.909Z,95.40
2022-10-28T08:13:55.189Z,95.50
2022-10-28T08:16:23.111Z,95.50
2022-10-28T08:18:53.027Z,95.50
2022-10-28T08:21:21.029Z,95.50
2022-10-28T08:23:48.877Z,95.50
2022-10-28T08:26:17.627Z,95.40
2022-10-28T08:28:45.571Z,95.50
2022-10-28T08:31:14.829Z,95.60
2022-10-28T08:33:44.338Z,95.70
2022-10-28T08:36:13.975Z,95.70
2022-10-28T08:38:45.652Z,95.70
2022-10-28T08:41:31.875Z,95.80
2022-10-28T08:44:27.129Z,95.70
2022-10-28T08:47:17.036Z,95.60
2022-10-28T08:49:49.223Z,95.60
2022-10-28T08:52:29.263Z,95.60
2022-10-28T08:55:02.290Z,95.50
2022-10-28T08:57:37.149Z,95.60
2022-10-28T09:00:08.191Z,95.50
2022-10-28T09:02:57.314Z,95.50
2022-10-28T09:05:26.763Z,95.50
2022-10-28T09:07:55.311Z,95.50
2022-10-28T09:10:42.873Z,95.50
2022-10-28T09:13:23.331Z,95.50
2022-10-28T09:15:58.333Z,95.70
2022-10-28T09:18:50.257Z,95.70
2022-10-28T09:21:22.230Z,95.70
2022-10-28T09:23:56.294Z,95.70
2022-10-28T09:26:34.602Z,95.70
2022-10-28T09:29:17.649Z,95.70
2022-10-28T09:31:48.876Z,95.80
2022-10-28T09:34:29.026Z,95.70
2022-10-28T09:37:01.975Z,95.70
2022-10-28T09:39:34.920Z,95.70
2022-10-28T09:42:04.886Z,95.70
2022-10-28T09:44:40.899Z,95.50
2022-10-28T09:47:16.841Z,95.80
2022-10-28T09:49:48.149Z,95.80
2022-10-28T09:52:20.978Z,95.70
2022-10-28T09:54:51.706Z,95.80
2022-10-28T09:57:20.320Z,95.80
2022-10-28T09:59:48.669Z,95.70
2022-10-28T10:02:30.221Z,95.70
2022-10-28T10:05:01.690Z,95.70
2022-10-28T10:07:35.707Z,95.70
2022-10-28T10:10:12.362Z,95.70
2022-10-28T10:12:40.503Z,95.60
2022-10-28T10:15:14.740Z,95.60
2022-10-28T10:17:46.005Z,95.70
2022-10-28T10:20:19.612Z,95.60
2022-10-28T10:22:49.573Z,95.50
2022-10-28T10:25:29.675Z,95.50
2022-10-28T10:28:01.380Z,95.50
2022-10-28T10:30:33.977Z,95.40
2022-10-28T10:33:03.236Z,95.40
2022-10-28T10:35:34.272Z,95.40
2022-10-28T10:38:04.970Z,95.40
2022-10-28T10:40:35.396Z,95.40
2022-10-28T10:43:22.391Z,95.30
2022-10-28T10:45:53.873Z,95.30
2022-10-28T10:48:21.745Z,95.20
2022-10-28T10:50:51.491Z,95.20
2022-10-28T10:53:22.481Z,95.10
2022-10-28T10:55:53.076Z,95.00
2022-10-28T10:58:23.509Z,95.10
2022-10-28T11:00:53.195Z,95.10
2022-10-28T11:03:25.527Z,95.10
2022-10-28T11:06:18.256Z,95.10
2022-10-28T11:08:45.238Z,95.00
2022-10-28T11:11:21.253Z,95.00
2022-10-28T11:14:02.655Z,95.00
2022-10-28T11:16:30.523Z,95.00
2022-10-28T11:18:58.357Z,94.90
2022-10-28T11:21:47.773Z,94.90
2022-10-28T11:24:55.447Z,94.80
2022-10-28T11:27:34.795Z,94.80
2022-10-28T11:30:03.898Z,94.80
2022-10-28T11:33:01.824Z,94.70
2022-10-28T11:35:44.052Z,94.60
2022-10-28T11:38:45.698Z,94.60
2022-10-28T11:41:29.354Z,94.70
2022-10-28T11:44:04.744Z,94.60
2022-10-28T11:46:43.064Z,94.60
2022-10-28T11:49:39.180Z,94.60
2022-10-28T11:52:23.091Z,94.60
2022-10-28T11:55:04.383Z,94.60
2022-10-28T11:57:47.503Z,94.20
2022-10-28T12:00:35.531Z,94.10
2022-10-28T12:03:18.134Z,93.50
2022-10-28T12:05:51.221Z,93.30
2022-10-28T12:08:36.511Z,93.00
2022-10-28T12:11:18.065Z,92.80
2022-10-28T12:13:55.094Z,92.50
2022-10-28T12:16:31.694Z,92.50
2022-10-28T12:19:05.046Z,92.70
2022-10-28T12:24:13.152Z,92.70
2022-10-28T12:26:45.012Z,92.60
2022-10-28T12:29:18.948Z,92.70
2022-10-28T12:31:51.021Z,92.70
2022-10-28T12:34:25.784Z,92.80
2022-10-28T12:36:59.498Z,92.60
2022-10-28T12:39:32.489Z,92.30
2022-10-28T12:42:05.645Z,92.20
2022-10-28T12:44:35.078Z,92.30
2022-10-28T12:47:20.458Z,92.20
2022-10-28T12:50:00.994Z,92.10
2022-10-28T12:52:38.639Z,91.50
2022-10-28T12:55:36.433Z,91.80
2022-10-28T12:58:15.279Z,92.00
2022-10-28T13:00:46.400Z,91.70
2022-10-28T13:03:16.063Z,91.50
2022-10-28T13:05:47.726Z,91.60
2022-10-28T13:08:33.698Z,91.20
2022-10-28T13:11:39.780Z,91.00
2022-10-28T13:14:20.894Z,91.00
2022-10-28T13:17:12.086Z,91.40
2022-10-28T13:19:52.355Z,91.00
2022-10-28T13:22:40.571Z,91.30
2022-10-28T13:25:34.035Z,91.00
2022-10-28T13:28:02.533Z,90.90
2022-10-28T13:30:32.038Z,91.20
2022-10-28T13:33:06.725Z,91.30
2022-10-28T13:35:35.218Z,91.10
2022-10-28T13:38:04.081Z,91.00
2022-10-28T13:41:25.828Z,90.70
2022-10-28T13:44:30.155Z,90.60
2022-10-28T13:47:28.216Z,90.70
2022-10-28T13:50:42.328Z,90.90
2022-10-28T13:53:55.294Z,90.80
2022-10-28T13:56:43.739Z,90.80
2022-10-28T13:59:23.937Z,90.80
2022-10-28T14:02:07.818Z,91.20
2022-10-28T14:04:45.978Z,91.20
2022-10-28T14:07:23.658Z,91.20
2022-10-28T14:09:55.058Z,91.10
2022-10-28T14:12:26.583Z,91.10
2022-10-28T14:15:07.505Z,91.10
2022-10-28T14:17:38.286Z,91.20
2022-10-28T14:20:21.767Z,91.40
2022-10-28T14:22:51.049Z,91.20
2022-10-28T14:25:56.159Z,91.40
2022-10-28T14:28:55.576Z,91.30
2022-10-28T14:31:41.273Z,91.30
2022-10-28T14:34:48.552Z,91.40
2022-10-28T14:37:54.641Z,91.50
2022-10-28T14:40:34.051Z,91.40
2022-10-28T14:43:37.535Z,91.30
2022-10-28T14:46:14.222Z,91.40
2022-10-28T14:48:48.145Z,91.30
2022-10-28T14:51:19.243Z,91.80
2022-10-28T14:53:48.856Z,91.50
2022-10-28T14:59:00.147Z,91.60
2022-10-28T15:01:30.098Z,91.60
2022-10-28T15:04:03.426Z,91.60
2022-10-28T15:06:36.217Z,91.70
2022-10-28T15:09:21.326Z,91.70
2022-10-28T15:11:52.525Z,91.50
2022-10-28T15:14:30.316Z,91.70
2022-10-28T15:17:00.020Z,91.60
2022-10-28T15:19:30.153Z,91.70
2022-10-28T15:22:06.184Z,91.60
2022-10-28T15:24:35.472Z,91.80
2022-10-28T15:27:03.355Z,91.70
2022-10-28T15:29:31.941Z,91.70
2022-10-28T15:32:27.919Z,91.70
2022-10-28T15:34:56.121Z,91.80
2022-10-28T15:37:26.022Z,91.90
2022-10-28T15:40:13.508Z,91.90
2022-10-28T15:42:45.620Z,91.70
2022-10-28T15:45:21.045Z,91.90
2022-10-28T15:47:50.179Z,92.10
2022-10-28T15:50:28.244Z,92.40
2022-10-28T15:53:37.251Z,92.40
2022-10-28T15:56:18.745Z,92.20
2022-10-28T15:58:48.393Z,92.30
2022-10-28T16:01:31.430Z,92.30
2022-10-28T16:03:59.593Z,92.00
2022-10-28T16:06:30.709Z,92.10
2022-10-28T16:09:18.146Z,91.80
2022-10-28T16:11:49.733Z,91.90
2022-10-28T16:14:30.965Z,91.40
2022-10-28T16:19:41.985Z,91.90
2022-10-28T16:22:13.636Z,91.60
2022-10-28T16:24:41.719Z,91.80
2022-10-28T16:27:19.702Z,91.90
2022-10-28T16:29:47.864Z,91.80
2022-10-28T16:32:17.084Z,91.80
2022-10-28T16:34:44.997Z,91.40
2022-10-28T16:37:24.382Z,91.90
2022-10-28T16:39:52.370Z,91.90
2022-10-28T16:42:22.821Z,91.80
2022-10-28T16:44:51.359Z,91.60
2022-10-28T16:47:21.548Z,91.70
2022-10-28T16:49:54.104Z,92.00
2022-10-28T16:52:27.260Z,92.10
2022-10-28T16:54:55.348Z,91.90
2022-10-28T16:57:25.623Z,92.30
2022-10-28T16:59:54.002Z,92.40
2022-10-28T17:02:25.377Z,92.00
2022-10-28T17:04:53.364Z,92.40
2022-10-28T17:07:21.222Z,92.30
2022-10-28T17:09:49.138Z,92.40
2022-10-28T17:12:18.761Z,92.40
2022-10-28T17:14:48.024Z,92.20
2022-10-28T17:17:16.244Z,92.30
2022-10-28T17:19:45.568Z,92.10
2022-10-28T17:22:14.587Z,92.30
2022-10-28T17:24:42.605Z,92.10
2022-10-28T17:27:10.445Z,92.10
2022-10-28T17:29:38.691Z,92.20
2022-10-28T17:32:08.636Z,92.00
2022-10-28T17:34:36.852Z,92.20
2022-10-28T17:37:05.019Z,92.40
2022-10-28T17:39:32.843Z,92.20
2022-10-28T17:42:01.043Z,92.30
2022-10-28T17:44:28.878Z,92.50
2022-10-28T17:46:56.708Z,92.50
2022-10-28T17:49:25.894Z,92.60
2022-10-28T17:51:54.448Z,92.70
2022-10-28T17:56:55.074Z,92.70
2022-10-28T17:59:22.940Z,92.60
2022-10-28T18:01:50.903Z,92.70
2022-10-28T18:04:19.903Z,92.70
2022-10-28T18:06:49.147Z,92.30
2022-10-28T18:09:17.023Z,92.90
2022-10-28T18:11:44.885Z,93.00
2022-10-28T18:14:12.761Z,93.00
2022-10-28T18:16:40.666Z,93.00
2022-10-28T18:19:09.026Z,92.80
2022-10-28T18:21:36.911Z,93.00
2022-10-28T18:24:06.916Z,93.10
2022-10-28T18:26:36.157Z,93.20
2022-10-28T18:29:05.342Z,93.10
2022-10-28T18:31:34.226Z,93.20
2022-10-28T18:34:02.408Z,93.20
2022-10-28T18:36:34.307Z,93.20
2022-10-28T18:39:02.935Z,93.30
2022-10-28T18:41:32.535Z,93.20
2022-10-28T18:44:02.723Z,92.90
2022-10-28T18:46:32.735Z,92.70
2022-10-28T18:51:33.894Z,93.40
2022-10-28T18:54:01.976Z,93.00
2022-10-28T18:56:30.826Z,93.50
2022-10-28T18:59:02.723Z,93.50
2022-10-28T19:01:31.600Z,93.50
2022-10-28T19:04:00.914Z,93.50
2022-10-28T19:06:32.436Z,93.10
2022-10-28T19:09:02.246Z,93.10
2022-10-28T19:11:31.779Z,93.60
2022-10-28T19:14:02.562Z,93.30
2022-10-28T19:16:33.243Z,93.10
2022-10-28T19:19:03.489Z,93.80
2022-10-28T19:21:31.358Z,93.90
2022-10-28T19:23:59.544Z,93.20
2022-10-28T19:26:27.746Z,93.90
2022-10-28T19:28:55.613Z,93.80
2022-10-28T19:31:26.562Z,93.80
2022-10-28T19:33:55.829Z,93.40
2022-10-28T19:36:25.243Z,93.80
2022-10-28T19:38:54.330Z,93.20
2022-10-28T19:41:24.341Z,93.30
2022-10-28T19:43:57.798Z,93.70
2022-10-28T19:46:29.171Z,93.90
2022-10-28T19:48:58.665Z,93.20
2022-10-28T19:51:28.180Z,93.10
2022-10-28T19:53:57.428Z,93.70
2022-10-28T19:56:25.350Z,93.90
2022-10-28T19:58:56.119Z,93.90
2022-10-28T20:01:25.842Z,93.60
2022-10-28T20:03:56.222Z,94.00
2022-10-28T20:06:25.996Z,94.00
2022-10-28T20:08:54.363Z,94.00
2022-10-28T20:11:26.309Z,94.00
2022-10-28T20:13:55.740Z,93.60
2022-10-28T20:16:24.427Z,94.00
2022-10-28T20:18:52.280Z,93.70
2022-10-28T20:21:22.860Z,94.10
2022-10-28T20:23:53.422Z,94.20
2022-10-28T20:26:22.365Z,94.10
2022-10-28T20:28:50.940Z,94.00
2022-10-28T20:31:20.859Z,94.20
2022-10-28T20:33:52.188Z,94.30
2022-10-28T20:36:26.197Z,94.30
2022-10-28T20:38:55.201Z,94.10
2022-10-28T20:41:23.464Z,94.40
2022-10-28T20:43:52.443Z,94.50
2022-10-28T20:46:20.945Z,94.30
2022-10-28T20:48:49.523Z,94.40
2022-10-28T20:51:17.572Z,94.50
2022-10-28T20:53:46.782Z,94.50
2022-10-28T20:56:18.632Z,94.50
2022-10-28T20:58:46.508Z,94.40
2022-10-28T21:01:16.214Z,94.40
2022-10-28T21:03:44.913Z,94.40
2022-10-28T21:06:15.036Z,94.40
2022-10-28T21:08:43.516Z,94.40
2022-10-28T21:11:15.814Z,94.40
2022-10-28T21:13:45.443Z,94.40
2022-10-28T21:16:14.139Z,94.50
2022-10-28T21:18:42.025Z,94.50
2022-10-28T21:21:11.565Z,94.20
2022-10-28T21:23:39.448Z,94.50
2022-10-28T21:26:08.876Z,94.70
2022-10-28T21:28:38.820Z,94.70
2022-10-28T21:31:08.733Z,94.50
2022-10-28T21:33:38.028Z,94.80
2022-10-28T21:36:07.981Z,94.80
2022-10-28T21:38:37.080Z,94.80
2022-10-28T21:41:06.927Z,94.80
2022-10-28T21:43:38.288Z,94.70
2022-10-28T21:46:06.878Z,94.70
2022-10-28T21:48:36.309Z,94.70
2022-10-28T21:51:09.988Z,94.50
2022-10-28T21:53:43.118Z,94.70
2022-10-28T21:56:17.071Z,94.30
2022-10-28T21:58:48.228Z,94.70
2022-10-28T22:01:18.662Z,94.80
2022-10-28T22:03:46.795Z,94.80
2022-10-28T22:06:15.159Z,94.80
2022-10-28T22:08:43.213Z,94.70
2022-10-28T22:11:13.964Z,95.00
2022-10-28T22:13:42.206Z,95.00
2022-10-28T22:16:14.803Z,94.90
2022-10-28T22:18:42.931Z,94.70
2022-10-28T22:21:12.876Z,94.70
2022-10-28T22:23:40.983Z,94.80
2022-10-28T22:26:11.104Z,95.00
2022-10-28T22:28:39.065Z,95.20
2022-10-28T22:31:09.235Z,95.00
2022-10-28T22:33:39.378Z,95.20
2022-10-28T22:36:09.376Z,94.80
2022-10-28T22:38:37.636Z,95.20
2022-10-28T22:41:06.907Z,94.90
2022-10-28T22:43:35.214Z,95.20
2022-10-28T22:46:03.340Z,95.20
2022-10-28T22:48:31.913Z,95.20
2022-10-28T22:51:01.767Z,95.10
2022-10-28T22:53:29.627Z,95.10
2022-10-28T22:55:58.195Z,95.00
2022-10-28T22:58:27.475Z,95.10
2022-10-28T23:01:04.773Z,95.10
2022-10-28T23:03:36.336Z,95.20
2022-10-28T23:06:06.074Z,95.20
2022-10-28T23:08:34.462Z,95.20
2022-10-28T23:11:02.391Z,95.30
2022-10-28T23:13:30.283Z,95.30
2022-10-28T23:15:58.203Z,95.20
2022-10-28T23:18:28.404Z,95.30
2022-10-28T23:20:56.257Z,95.30
2022-10-28T23:23:25.407Z,95.30
2022-10-28T23:25:54.202Z,95.30
2022-10-28T23:28:22.080Z,95.40
2022-10-28T23:30:50.027Z,95.30
2022-10-28T23:33:17.887Z,95.30
2022-10-28T23:35:45.691Z,94.90
2022-10-28T23:38:16.424Z,95.30
2022-10-28T23:40:54.177Z,95.40
2022-10-28T23:43:22.082Z,95.40
2022-10-28T23:45:49.917Z,95.30
2022-10-28T23:48:17.864Z,95.00
2022-10-28T23:50:45.897Z,95.40
2022-10-28T23:53:14.115Z,95.30
2022-10-28T23:55:45.391Z,95.40
2022-10-28T23:58:13.542Z,95.40
